createdAt,value
2023-03-16T00:01:53.098Z,1.67
2023-03-16T00:04:31.609Z,1.67
2023-03-16T00:07:09.455Z,1.40
2023-03-16T00:09:45.380Z,1.60
2023-03-16T00:12:22.750Z,1.58
2023-03-16T00:14:58.570Z,1.02
2023-03-16T00:17:35.014Z,1.30
2023-03-16T00:20:07.124Z,1.50
2023-03-16T00:22:42.976Z,1.60
2023-03-16T00:25:19.786Z,1.40
2023-03-16T00:27:47.616Z,1.25
2023-03-16T00:30:20.505Z,1.33
2023-03-16T00:32:54.733Z,1.85
2023-03-16T00:35:25.841Z,1.23
2023-03-16T00:37:58.514Z,1.48
2023-03-16T00:40:30.164Z,1.42
2023-03-16T00:43:07.012Z,1.20
2023-03-16T00:45:44.790Z,1.63
2023-03-16T00:48:18.478Z,1.30
2023-03-16T00:50:54.533Z,1.40
2023-03-16T00:53:30.718Z,1.35
2023-03-16T00:58:35.874Z,1.60
2023-03-16T01:01:23.090Z,1.40
2023-03-16T01:03:56.169Z,1.50
2023-03-16T01:06:35.438Z,1.45
2023-03-16T01:09:09.774Z,1.50
2023-03-16T01:11:43.780Z,1.42
2023-03-16T01:14:14.321Z,1.35
2023-03-16T01:16:51.950Z,1.40
2023-03-16T01:19:28.450Z,1.45
2023-03-16T01:22:08.583Z,1.50
2023-03-16T01:24:45.218Z,1.42
2023-03-16T01:27:23.280Z,1.20
2023-03-16T01:30:02.358Z,1.50
2023-03-16T01:32:42.276Z,1.33
2023-03-16T01:35:22.398Z,1.48
2023-03-16T01:37:58.821Z,1.48
2023-03-16T01:40:29.710Z,1.40
2023-03-16T01:43:11.355Z,1.40
2023-03-16T01:46:07.671Z,1.50
2023-03-16T01:48:54.619Z,1.33
2023-03-16T01:51:50.701Z,1.52
2023-03-16T01:57:10.466Z,1.50
2023-03-16T02:02:23.888Z,1.58
2023-03-16T02:05:14.351Z,1.38
2023-03-16T02:07:47.959Z,1.55
2023-03-16T02:10:20.750Z,1.50
2023-03-16T02:12:58.114Z,1.48
2023-03-16T02:15:36.829Z,1.35
2023-03-16T02:18:12.772Z,1.30
2023-03-16T02:20:55.010Z,1.55
2023-03-16T02:23:29.652Z,1.23
2023-03-16T02:26:18.666Z,1.52
2023-03-16T02:29:05.262Z,1.42
2023-03-16T02:31:41.819Z,1.25
2023-03-16T02:34:13.229Z,1.25
2023-03-16T02:36:48.858Z,1.10
2023-03-16T02:39:27.350Z,1.40
2023-03-16T02:42:13.568Z,1.30
2023-03-16T02:44:50.953Z,1.30
2023-03-16T02:47:42.954Z,1.25
2023-03-16T02:50:19.302Z,1.30
2023-03-16T02:52:48.486Z,1.23
2023-03-16T02:55:25.080Z,1.40
2023-03-16T02:57:58.687Z,1.10
2023-03-16T03:00:34.774Z,1.40
2023-03-16T03:03:09.561Z,1.33
2023-03-16T03:05:49.393Z,1.30
2023-03-16T03:08:25.572Z,1.13
2023-03-16T03:10:56.954Z,1.30
2023-03-16T03:13:35.334Z,1.30
2023-03-16T03:16:08.857Z,1.20
2023-03-16T03:18:41.985Z,1.30
2023-03-16T03:21:13.234Z,1.40
2023-03-16T03:23:51.860Z,1.13
2023-03-16T03:26:25.883Z,1.33
2023-03-16T03:28:58.267Z,1.17
2023-03-16T03:31:33.720Z,1.30
2023-03-16T03:36:41.523Z,1.17
2023-03-16T03:39:14.417Z,1.48
2023-03-16T03:41:47.867Z,1.30
2023-03-16T03:44:18.583Z,1.00
2023-03-16T03:46:57.643Z,1.10
2023-03-16T03:49:33.415Z,1.10
2023-03-16T03:52:09.812Z,1.10
2023-03-16T03:54:48.459Z,1.20
2023-03-16T03:57:23.290Z,1.33
2023-03-16T03:59:55.991Z,1.10
2023-03-16T04:02:29.124Z,1.10
2023-03-16T04:05:09.153Z,1.10
2023-03-16T04:07:49.491Z,1.05
2023-03-16T04:10:21.115Z,1.10
2023-03-16T04:12:59.796Z,1.30
2023-03-16T04:15:40.887Z,1.15
2023-03-16T04:18:19.512Z,1.27
2023-03-16T04:20:55.145Z,1.20
2023-03-16T04:23:30.462Z,1.02
2023-03-16T04:28:36.344Z,1.20
2023-03-16T04:31:13.065Z,0.98
2023-03-16T04:33:50.257Z,1.20
2023-03-16T04:36:33.243Z,1.05
2023-03-16T04:39:06.844Z,1.00
2023-03-16T04:41:40.178Z,1.30
2023-03-16T04:44:26.279Z,1.10
2023-03-16T04:47:06.395Z,1.17
2023-03-16T04:52:16.298Z,1.13
2023-03-16T04:54:54.871Z,1.17
2023-03-16T04:57:25.573Z,0.98
2023-03-16T05:00:09.876Z,1.00
2023-03-16T05:02:46.592Z,1.08
2023-03-16T05:05:25.072Z,1.10
2023-03-16T05:08:01.695Z,1.27
2023-03-16T05:10:37.040Z,1.05
2023-03-16T05:13:15.961Z,1.20
2023-03-16T05:15:48.086Z,1.02
2023-03-16T05:18:35.573Z,1.10
2023-03-16T05:21:11.543Z,1.00
2023-03-16T05:24:08.387Z,1.00
2023-03-16T05:26:41.862Z,1.08
2023-03-16T05:29:20.929Z,1.13
2023-03-16T05:31:51.537Z,0.90
2023-03-16T05:34:31.655Z,1.00
2023-03-16T05:37:05.032Z,1.10
2023-03-16T05:39:41.592Z,0.93
2023-03-16T05:42:19.820Z,1.10
2023-03-16T05:44:58.349Z,1.10
2023-03-16T05:47:45.136Z,1.25
2023-03-16T05:50:21.110Z,1.13
2023-03-16T05:53:00.114Z,1.20
2023-03-16T05:55:31.124Z,1.33
2023-03-16T05:58:08.432Z,1.10
2023-03-16T06:00:50.465Z,0.90
2023-03-16T06:03:37.546Z,0.90
2023-03-16T06:06:12.647Z,0.98
2023-03-16T06:09:01.242Z,1.00
2023-03-16T06:11:32.308Z,1.17
2023-03-16T06:14:08.388Z,0.90
2023-03-16T06:16:43.150Z,1.20
2023-03-16T06:19:23.705Z,1.00
2023-03-16T06:22:05.168Z,1.00
2023-03-16T06:24:40.584Z,0.93
2023-03-16T06:27:16.676Z,1.20
2023-03-16T06:30:07.066Z,0.95
2023-03-16T06:32:47.048Z,1.00
2023-03-16T06:35:22.830Z,1.10
2023-03-16T06:38:11.188Z,0.93
2023-03-16T06:41:06.916Z,0.93
2023-03-16T06:43:41.066Z,1.05
2023-03-16T06:46:20.131Z,1.08
2023-03-16T06:48:51.020Z,1.00
2023-03-16T06:51:25.405Z,0.98
2023-03-16T06:54:07.027Z,0.90
2023-03-16T06:56:41.943Z,0.88
2023-03-16T06:59:23.384Z,1.08
2023-03-16T07:01:59.904Z,1.10
2023-03-16T07:04:37.361Z,1.00
2023-03-16T07:07:17.429Z,1.05
2023-03-16T07:09:53.252Z,0.90
2023-03-16T07:12:23.104Z,1.20
2023-03-16T07:14:59.028Z,0.95
2023-03-16T07:17:38.915Z,0.90
2023-03-16T07:20:22.905Z,1.00
2023-03-16T07:23:08.155Z,0.90
2023-03-16T07:25:48.238Z,0.70
2023-03-16T07:28:26.871Z,1.00
2023-03-16T07:31:06.251Z,1.10
2023-03-16T07:33:44.574Z,0.85
2023-03-16T07:36:28.144Z,0.85
2023-03-16T07:39:17.971Z,0.90
2023-03-16T07:41:57.066Z,1.05
2023-03-16T07:44:58.026Z,1.00
2023-03-16T07:47:34.322Z,1.02
2023-03-16T07:52:47.574Z,0.80
2023-03-16T07:55:23.839Z,0.95
2023-03-16T07:57:55.200Z,0.98
2023-03-16T08:00:39.962Z,1.00
2023-03-16T08:03:14.137Z,0.85
2023-03-16T08:05:48.206Z,0.90
2023-03-16T08:08:29.235Z,1.10
2023-03-16T08:11:03.700Z,0.75
2023-03-16T08:13:57.114Z,0.85
2023-03-16T08:16:33.013Z,0.85
2023-03-16T08:19:03.937Z,0.70
2023-03-16T08:21:59.781Z,1.00
2023-03-16T08:24:45.359Z,0.68
2023-03-16T08:27:23.380Z,0.80
2023-03-16T08:30:07.182Z,0.80
2023-03-16T08:32:43.053Z,0.73
2023-03-16T08:35:20.228Z,1.15
2023-03-16T08:37:59.986Z,0.70
2023-03-16T08:40:35.938Z,1.20
2023-03-16T08:43:10.137Z,0.90
2023-03-16T08:45:49.944Z,0.80
2023-03-16T08:48:29.898Z,1.00
2023-03-16T08:51:11.851Z,1.00
2023-03-16T08:53:48.062Z,0.60
2023-03-16T08:56:32.603Z,0.75
2023-03-16T08:59:27.359Z,0.90
2023-03-16T09:02:14.889Z,1.00
2023-03-16T09:04:52.784Z,0.90
2023-03-16T09:07:29.481Z,0.82
2023-03-16T09:10:10.193Z,0.80
2023-03-16T09:12:50.818Z,0.85
2023-03-16T09:15:37.693Z,1.23
2023-03-16T09:18:15.283Z,0.70
2023-03-16T09:20:51.752Z,0.80
2023-03-16T09:23:21.069Z,1.15
2023-03-16T09:25:57.835Z,0.98
2023-03-16T09:28:29.587Z,0.82
2023-03-16T09:30:59.037Z,0.63
2023-03-16T09:33:34.019Z,0.93
2023-03-16T09:36:06.325Z,0.90
2023-03-16T09:38:37.465Z,0.80
2023-03-16T09:41:31.771Z,0.98
2023-03-16T09:44:13.735Z,0.85
2023-03-16T09:46:48.745Z,0.77
2023-03-16T09:49:26.205Z,0.90
2023-03-16T09:52:02.209Z,0.70
2023-03-16T09:54:50.961Z,0.90
2023-03-16T09:57:31.115Z,0.80
2023-03-16T10:00:19.906Z,1.02
2023-03-16T10:02:51.231Z,0.65
2023-03-16T10:05:32.118Z,0.80
2023-03-16T10:08:30.988Z,1.38
2023-03-16T10:11:24.559Z,0.70
2023-03-16T10:14:17.739Z,0.85
2023-03-16T10:16:57.037Z,0.83
2023-03-16T10:19:43.563Z,0.70
2023-03-16T10:22:18.757Z,0.90
2023-03-16T10:25:07.973Z,0.60
2023-03-16T10:27:43.588Z,0.60
2023-03-16T10:30:34.433Z,0.85
2023-03-16T10:33:25.081Z,0.70
2023-03-16T10:36:16.804Z,0.65
2023-03-16T10:39:01.605Z,0.90
2023-03-16T10:41:43.390Z,0.80
2023-03-16T10:44:30.234Z,0.82
2023-03-16T10:47:17.035Z,0.70
2023-03-16T10:49:55.214Z,0.80
2023-03-16T10:52:33.317Z,0.90
2023-03-16T10:55:16.090Z,0.70
2023-03-16T10:58:08.909Z,0.90
2023-03-16T11:00:50.234Z,0.70
2023-03-16T11:03:45.195Z,0.70
2023-03-16T11:06:27.974Z,0.80
2023-03-16T11:09:14.003Z,0.63
2023-03-16T11:11:54.116Z,0.85
2023-03-16T11:14:36.361Z,0.60
2023-03-16T11:17:44.649Z,0.70
2023-03-16T11:20:44.010Z,0.50
2023-03-16T11:23:27.809Z,0.60
2023-03-16T11:26:17.764Z,0.60
2023-03-16T11:29:09.879Z,0.65
2023-03-16T11:31:53.656Z,0.73
2023-03-16T11:34:35.358Z,0.80
2023-03-16T11:37:45.562Z,0.65
2023-03-16T11:40:36.552Z,0.80
2023-03-16T11:43:15.263Z,0.88
2023-03-16T11:46:16.710Z,0.80
2023-03-16T11:49:00.025Z,0.60
2023-03-16T11:51:54.309Z,0.73
2023-03-16T11:54:25.041Z,0.80
2023-03-16T11:57:15.495Z,0.75
2023-03-16T12:00:05.164Z,0.80
2023-03-16T12:02:55.499Z,0.65
2023-03-16T12:05:58.348Z,0.70
2023-03-16T12:09:04.514Z,0.55
2023-03-16T12:11:51.377Z,0.70
2023-03-16T12:14:34.127Z,0.65
2023-03-16T12:17:18.474Z,0.70
2023-03-16T12:20:24.866Z,0.80
2023-03-16T12:23:24.455Z,0.60
2023-03-16T12:25:56.002Z,0.50
2023-03-16T12:28:31.913Z,0.80
2023-03-16T12:31:12.210Z,0.80
2023-03-16T12:34:02.623Z,0.60
2023-03-16T12:36:58.217Z,0.70
2023-03-16T12:39:45.716Z,0.63
2023-03-16T12:42:47.546Z,0.70
2023-03-16T12:45:32.729Z,0.70
2023-03-16T12:48:31.160Z,0.60
2023-03-16T12:51:08.067Z,0.70
2023-03-16T12:53:49.903Z,0.70
2023-03-16T12:56:39.182Z,0.70
2023-03-16T12:59:23.353Z,0.70
2023-03-16T13:01:58.266Z,0.68
2023-03-16T13:04:45.635Z,0.60
2023-03-16T13:07:34.356Z,0.60
2023-03-16T13:10:12.441Z,0.63
2023-03-16T13:12:41.895Z,0.60
2023-03-16T13:15:23.206Z,0.68
2023-03-16T13:18:21.274Z,0.90
2023-03-16T13:21:18.566Z,0.60
2023-03-16T13:24:00.219Z,0.60
2023-03-16T13:26:41.847Z,0.55
2023-03-16T13:29:28.554Z,0.80
2023-03-16T13:32:01.862Z,0.65
2023-03-16T13:34:56.686Z,0.77
2023-03-16T13:37:28.552Z,0.90
2023-03-16T13:40:04.820Z,0.80
2023-03-16T13:42:33.858Z,0.70
2023-03-16T13:45:14.433Z,0.80
2023-03-16T13:47:44.396Z,0.70
2023-03-16T13:50:18.250Z,0.80
2023-03-16T13:52:58.279Z,0.80
2023-03-16T13:55:37.815Z,0.80
2023-03-16T13:58:11.411Z,1.05
2023-03-16T14:00:47.898Z,0.77
2023-03-16T14:03:22.417Z,0.70
2023-03-16T14:06:03.018Z,0.90
2023-03-16T14:08:34.538Z,0.70
2023-03-16T14:11:17.982Z,0.60
2023-03-16T14:14:06.489Z,0.88
2023-03-16T14:16:46.857Z,0.85
2023-03-16T14:19:29.955Z,0.95
2023-03-16T14:22:08.351Z,0.55
2023-03-16T14:24:41.310Z,0.68
2023-03-16T14:27:19.932Z,0.70
2023-03-16T14:29:57.172Z,0.63
2023-03-16T14:32:35.183Z,0.80
2023-03-16T14:35:16.955Z,0.80
2023-03-16T14:37:49.433Z,0.98
2023-03-16T14:40:33.572Z,0.98
2023-03-16T14:43:09.827Z,0.73
2023-03-16T14:45:48.147Z,0.68
2023-03-16T14:48:24.225Z,0.80
2023-03-16T14:51:01.872Z,1.00
2023-03-16T14:53:43.576Z,0.90
2023-03-16T14:56:22.235Z,0.82
2023-03-16T14:58:58.652Z,0.60
2023-03-16T15:01:38.466Z,1.05
2023-03-16T15:04:16.551Z,0.95
2023-03-16T15:06:58.834Z,0.90
2023-03-16T15:09:52.180Z,1.00
2023-03-16T15:12:43.802Z,0.80
2023-03-16T15:15:20.010Z,1.00
2023-03-16T15:17:55.871Z,0.70
2023-03-16T15:20:42.592Z,0.85
2023-03-16T15:23:17.729Z,0.90
2023-03-16T15:25:47.720Z,0.90
2023-03-16T15:28:23.837Z,0.90
2023-03-16T15:31:07.138Z,0.75
2023-03-16T15:33:45.415Z,0.98
2023-03-16T15:36:27.845Z,0.93
2023-03-16T15:39:10.136Z,0.90
2023-03-16T15:41:49.547Z,1.13
2023-03-16T15:44:23.210Z,0.80
2023-03-16T15:47:06.517Z,0.77
2023-03-16T15:49:47.118Z,0.90
2023-03-16T15:52:30.599Z,0.98
2023-03-16T15:55:15.403Z,0.90
2023-03-16T15:57:59.169Z,0.77
2023-03-16T16:03:18.704Z,0.70
2023-03-16T16:06:01.641Z,0.80
2023-03-16T16:08:43.897Z,0.90
2023-03-16T16:11:26.003Z,0.90
2023-03-16T16:14:03.207Z,0.70
2023-03-16T16:16:45.515Z,0.75
2023-03-16T16:19:36.358Z,1.00
2023-03-16T16:22:16.584Z,0.70
2023-03-16T16:24:54.298Z,0.60
2023-03-16T16:27:28.579Z,0.77
2023-03-16T16:30:09.132Z,0.80
2023-03-16T16:32:46.602Z,0.80
2023-03-16T16:35:27.747Z,0.98
2023-03-16T16:38:06.020Z,0.70
2023-03-16T16:40:46.252Z,0.90
2023-03-16T16:43:34.977Z,0.70
2023-03-16T16:46:33.255Z,1.05
2023-03-16T16:49:31.248Z,0.80
2023-03-16T16:52:13.176Z,0.95
2023-03-16T16:54:52.291Z,0.93
2023-03-16T16:57:23.337Z,1.00
2023-03-16T17:00:05.538Z,0.80
2023-03-16T17:02:57.891Z,0.80
2023-03-16T17:05:35.644Z,0.85
2023-03-16T17:08:14.496Z,0.70
2023-03-16T17:10:50.521Z,0.70
2023-03-16T17:13:32.376Z,0.77
2023-03-16T17:16:07.438Z,0.80
2023-03-16T17:18:42.253Z,0.70
2023-03-16T17:21:20.095Z,0.52
2023-03-16T17:23:51.960Z,0.55
2023-03-16T17:26:44.631Z,1.00
2023-03-16T17:29:29.304Z,0.70
2023-03-16T17:32:02.513Z,0.68
2023-03-16T17:34:37.713Z,0.88
2023-03-16T17:37:18.786Z,0.65
2023-03-16T17:42:34.506Z,0.95
2023-03-16T17:45:15.560Z,0.70
2023-03-16T17:47:53.105Z,0.65
2023-03-16T17:50:30.051Z,0.70
2023-03-16T17:53:03.708Z,0.90
2023-03-16T17:55:43.151Z,0.90
2023-03-16T17:58:21.853Z,0.65
2023-03-16T18:01:01.465Z,0.80
2023-03-16T18:03:34.954Z,0.90
2023-03-16T18:08:43.460Z,0.73
2023-03-16T18:11:20.823Z,0.68
2023-03-16T18:13:58.339Z,0.90
2023-03-16T18:16:39.329Z,0.70
2023-03-16T18:19:25.448Z,0.60
2023-03-16T18:21:58.973Z,0.80
2023-03-16T18:27:12.092Z,0.90
2023-03-16T18:29:45.808Z,0.80
2023-03-16T18:32:33.240Z,0.80
2023-03-16T18:35:09.744Z,0.90
2023-03-16T18:37:43.338Z,0.68
2023-03-16T18:40:21.666Z,0.90
2023-03-16T18:42:55.073Z,0.70
2023-03-16T18:45:28.302Z,0.90
2023-03-16T18:48:04.884Z,0.73
2023-03-16T18:50:38.022Z,0.95
2023-03-16T18:53:18.208Z,0.77
2023-03-16T18:56:03.802Z,0.73
2023-03-16T18:58:47.795Z,0.77
2023-03-16T19:01:37.619Z,0.80
2023-03-16T19:04:36.128Z,0.85
2023-03-16T19:07:17.300Z,0.80
2023-03-16T19:09:58.136Z,0.77
2023-03-16T19:12:38.443Z,0.90
2023-03-16T19:15:28.593Z,0.90
2023-03-16T19:18:03.839Z,0.80
2023-03-16T19:20:44.524Z,0.95
2023-03-16T19:23:39.143Z,0.95
2023-03-16T19:26:15.213Z,0.85
2023-03-16T19:28:54.209Z,0.60
2023-03-16T19:31:29.678Z,0.98
2023-03-16T19:34:07.987Z,0.95
2023-03-16T19:36:47.406Z,0.88
2023-03-16T19:39:21.335Z,0.90
2023-03-16T19:42:03.845Z,1.00
2023-03-16T19:44:42.230Z,1.08
2023-03-16T19:47:28.861Z,0.88
2023-03-16T19:50:14.665Z,1.00
2023-03-16T19:52:52.799Z,0.77
2023-03-16T19:55:38.041Z,0.90
2023-03-16T19:58:20.936Z,1.02
2023-03-16T20:01:01.310Z,0.93
2023-03-16T20:03:37.375Z,1.08
2023-03-16T20:06:18.137Z,0.95
2023-03-16T20:08:57.040Z,1.13
2023-03-16T20:11:30.932Z,1.02
2023-03-16T20:14:08.818Z,0.90
2023-03-16T20:16:48.298Z,0.95
2023-03-16T20:19:16.767Z,1.17
2023-03-16T20:21:52.711Z,1.17
2023-03-16T20:24:31.721Z,1.00
2023-03-16T20:27:05.524Z,1.20
2023-03-16T20:29:38.608Z,0.95
2023-03-16T20:32:22.396Z,0.95
2023-03-16T20:37:41.957Z,1.08
2023-03-16T20:40:16.892Z,0.85
2023-03-16T20:42:52.764Z,1.02
2023-03-16T20:45:30.674Z,1.08
2023-03-16T20:48:10.256Z,1.10
2023-03-16T20:50:46.197Z,1.17
2023-03-16T20:55:54.804Z,0.80
2023-03-16T20:58:31.018Z,1.00
2023-03-16T21:01:07.074Z,1.20
2023-03-16T21:03:54.319Z,1.08
2023-03-16T21:06:35.824Z,0.93
2023-03-16T21:09:11.964Z,0.90
2023-03-16T21:11:48.411Z,0.80
2023-03-16T21:14:31.433Z,1.10
2023-03-16T21:17:10.852Z,0.90
2023-03-16T21:19:41.774Z,1.25
2023-03-16T21:22:26.168Z,0.82
2023-03-16T21:25:02.549Z,0.80
2023-03-16T21:27:39.899Z,0.98
2023-03-16T21:30:26.305Z,1.17
2023-03-16T21:33:05.994Z,0.93
2023-03-16T21:35:40.851Z,1.17
2023-03-16T21:38:17.810Z,0.98
2023-03-16T21:40:51.890Z,1.00
2023-03-16T21:43:25.892Z,1.10
2023-03-16T21:45:59.668Z,1.10
2023-03-16T21:48:42.936Z,0.93
2023-03-16T21:51:30.685Z,1.13
2023-03-16T21:54:09.154Z,1.05
2023-03-16T21:56:45.853Z,1.00
2023-03-16T21:59:24.904Z,1.02
2023-03-16T22:02:03.453Z,0.90
2023-03-16T22:04:41.893Z,1.00
2023-03-16T22:07:22.429Z,1.08
2023-03-16T22:10:03.045Z,1.10
2023-03-16T22:12:43.176Z,1.05
2023-03-16T22:15:20.085Z,1.08
2023-03-16T22:18:02.692Z,1.15
2023-03-16T22:20:38.743Z,1.00
2023-03-16T22:23:35.318Z,1.02
2023-03-16T22:26:15.390Z,1.00
2023-03-16T22:28:53.888Z,1.10
2023-03-16T22:31:35.089Z,1.20
2023-03-16T22:34:27.980Z,1.15
2023-03-16T22:37:02.873Z,1.05
2023-03-16T22:39:39.572Z,1.02
2023-03-16T22:42:35.790Z,1.00
2023-03-16T22:45:21.756Z,1.10
2023-03-16T22:47:54.079Z,1.20
2023-03-16T22:50:32.431Z,1.33
2023-03-16T22:53:09.059Z,1.30
2023-03-16T22:55:48.921Z,1.30
2023-03-16T22:58:40.657Z,0.90
2023-03-16T23:01:24.169Z,1.10
2023-03-16T23:04:01.950Z,1.00
2023-03-16T23:06:33.808Z,1.10
2023-03-16T23:09:09.806Z,1.20
2023-03-16T23:11:43.467Z,1.10
2023-03-16T23:14:21.281Z,1.30
2023-03-16T23:17:03.818Z,1.10
2023-03-16T23:19:39.618Z,1.02
2023-03-16T23:22:17.013Z,0.95
2023-03-16T23:24:47.596Z,1.10
2023-03-16T23:27:27.550Z,1.15
2023-03-16T23:30:01.969Z,1.17
2023-03-16T23:32:38.953Z,1.20
2023-03-16T23:35:25.127Z,1.25
2023-03-16T23:37:57.682Z,1.25
2023-03-16T23:40:35.038Z,1.25
2023-03-16T23:43:10.544Z,1.15
2023-03-16T23:45:52.831Z,1.00
2023-03-16T23:48:24.086Z,1.15
2023-03-16T23:50:58.432Z,1.30
2023-03-16T23:53:40.635Z,0.90
2023-03-16T23:56:14.979Z,1.25
2023-03-16T23:58:59.512Z,1.20
